Time;durP1;ratioP1;P1;durP2;ratioP2;P2;SDS_P1;SDS_P2;PMS_P1;PMS_P2;Temp;Humidity;BMP_temperature;BMP_pressure;BME280_temperature;BME280_humidity;BME280_pressure;Samples;Min_cycle;Max_cycle;Signal;HPM_P1;HPM_P2
2022/06/04 00:00:18;;;;;;;14.77;8.73;;;;;;;14.94;57.55;101738.19;5092042;28;20368;-53
2022/06/04 00:02:45;;;;;;;14.45;8.85;;;;;;;14.88;57.49;101737.50;5092606;28;20020;-53
2022/06/04 00:05:13;;;;;;;14.68;8.50;;;;;;;14.74;57.81;101722.78;5091767;28;20123;-53
2022/06/04 00:07:38;;;;;;;13.88;8.50;;;;;;;14.80;58.09;101736.28;5091975;28;20039;-54
2022/06/04 00:15:47;;;;;;;12.85;8.25;;;;;;;14.67;57.58;101723.22;5093102;28;20043;-55
2022/06/04 00:18:13;;;;;;;15.18;8.50;;;;;;;14.68;57.29;101724.84;5091386;28;20101;-55
2022/06/04 00:20:38;;;;;;;12.38;8.63;;;;;;;14.65;57.87;101725.44;5089917;28;20440;-55
2022/06/04 00:23:06;;;;;;;17.17;9.02;;;;;;;14.56;57.39;101707.81;5091823;28;20047;-56
2022/06/04 00:25:34;;;;;;;14.50;9.05;;;;;;;14.56;57.53;101707.81;5091724;28;20028;-56
2022/06/04 00:28:01;;;;;;;15.15;8.50;;;;;;;14.53;57.67;101716.81;5091772;28;20048;-57
2022/06/04 00:30:27;;;;;;;13.65;8.68;;;;;;;14.55;57.75;101726.50;5091828;28;20020;-55
2022/06/04 00:32:52;;;;;;;16.73;9.02;;;;;;;14.47;57.88;101732.81;5091477;28;20028;-55
2022/06/04 00:35:18;;;;;;;12.63;8.82;;;;;;;14.48;57.84;101718.56;5091997;28;20111;-56
2022/06/04 00:37:43;;;;;;;13.38;8.70;;;;;;;14.49;57.77;101716.63;5091857;28;20028;-55
2022/06/04 00:40:14;;;;;;;16.73;8.60;;;;;;;14.43;57.66;101707.56;5091295;28;20032;-55
2022/06/04 00:42:39;;;;;;;14.90;8.93;;;;;;;14.42;57.77;101725.41;5091770;28;20024;-55
2022/06/04 00:45:23;;;;;;;14.77;8.70;;;;;;;14.44;57.63;101728.69;5091886;28;20072;-55
2022/06/04 00:47:49;;;;;;;14.68;9.00;;;;;;;14.33;57.74;101725.28;5091802;28;20043;-56
2022/06/04 00:50:17;;;;;;;14.32;8.57;;;;;;;14.31;57.79;101721.97;5091809;28;20031;-56
2022/06/04 00:52:46;;;;;;;16.02;9.20;;;;;;;14.29;57.93;101718.72;5091690;28;20058;-56
2022/06/04 00:55:12;;;;;;;12.93;8.77;;;;;;;14.25;57.60;101716.84;5091880;28;20035;-56
2022/06/04 00:57:46;;;;;;;14.98;8.55;;;;;;;14.18;57.87;101712.50;5092006;28;20097;-57
2022/06/04 01:00:28;;;;;;;16.27;8.98;;;;;;;14.22;57.80;101732.19;5091672;28;20085;-56
2022/06/04 01:03:12;;;;;;;16.65;8.75;;;;;;;14.18;57.79;101736.75;5090716;28;20438;-56
2022/06/04 01:05:47;;;;;;;14.95;8.85;;;;;;;14.16;58.11;101742.63;5093841;28;20028;-55
2022/06/04 01:08:12;;;;;;;13.15;8.55;;;;;;;14.13;58.37;101745.19;5095749;28;20034;-55
2022/06/04 01:11:15;;;;;;;15.10;8.60;;;;;;;14.15;58.20;101751.25;5095322;28;20024;-54
2022/06/04 01:13:54;;;;;;;16.20;9.00;;;;;;;14.13;57.99;101773.00;5095821;28;20020;-55
2022/06/04 01:16:56;;;;;;;14.00;8.48;;;;;;;14.06;58.24;101776.22;5095889;28;20031;-55
2022/06/04 01:19:59;;;;;;;16.67;9.68;;;;;;;14.10;58.41;101790.34;5053397;28;20047;-55
2022/06/04 01:22:34;;;;;;;15.63;10.13;;;;;;;14.01;58.51;101796.59;5095168;28;20028;-55
2022/06/04 01:25:26;;;;;;;17.05;8.77;;;;;;;14.02;58.99;101791.84;5095496;28;20048;-53
2022/06/04 01:27:56;;;;;;;13.85;8.75;;;;;;;13.97;59.17;101784.44;5095914;28;20107;-55
2022/06/04 01:30:27;;;;;;;16.20;8.88;;;;;;;13.97;58.91;101787.22;5094250;28;20032;-55
2022/06/04 01:33:14;;;;;;;15.10;8.90;;;;;;;13.93;58.98;101794.53;5095175;28;20028;-56
2022/06/04 01:36:00;;;;;;;16.45;9.40;;;;;;;13.77;59.23;101793.13;5095389;28;20074;-57
2022/06/04 01:38:51;;;;;;;15.80;9.48;;;;;;;13.77;59.92;101785.63;5095509;28;20406;-56
2022/06/04 01:41:31;;;;;;;15.65;9.38;;;;;;;13.64;59.76;101761.38;5095006;28;20051;-53
2022/06/04 01:44:05;;;;;;;14.43;9.18;;;;;;;13.69;60.07;101778.81;5095126;28;20548;-56
2022/06/04 01:46:39;;;;;;;15.32;9.50;;;;;;;13.62;59.77;101778.38;5094963;28;20032;-57
2022/06/04 01:49:31;;;;;;;15.25;9.38;;;;;;;13.58;60.56;101782.88;5094981;28;20057;-58
2022/06/04 01:52:00;;;;;;;17.98;9.85;;;;;;;13.54;60.61;101792.97;5095171;28;20501;-57
2022/06/04 01:54:37;;;;;;;15.23;9.30;;;;;;;13.54;60.62;101793.78;5095124;28;20039;-56
2022/06/04 01:57:16;;;;;;;16.33;9.50;;;;;;;13.46;61.24;101802.00;5093652;28;20386;-57
2022/06/04 01:59:51;;;;;;;15.07;9.02;;;;;;;13.48;60.83;101811.69;5094762;28;20066;-56
2022/06/04 02:02:24;;;;;;;15.55;9.73;;;;;;;13.39;61.59;101811.53;5094907;28;20093;-57
2022/06/04 02:04:54;;;;;;;16.98;9.40;;;;;;;13.40;61.39;101806.81;5094804;28;20108;-57
2022/06/04 02:07:31;;;;;;;14.88;9.35;;;;;;;13.38;61.49;101807.06;5094421;28;20101;-57
2022/06/04 02:10:12;;;;;;;15.80;9.70;;;;;;;13.36;61.48;101801.00;5094776;28;20038;-57
2022/06/04 02:12:41;;;;;;;15.10;9.32;;;;;;;13.33;61.89;101798.81;5094748;28;20023;-55
2022/06/04 02:15:12;;;;;;;17.67;10.13;;;;;;;13.33;61.50;101797.97;5094341;28;20038;-55
2022/06/04 02:17:40;;;;;;;17.08;9.70;;;;;;;13.25;61.93;101788.41;5094327;28;20034;-55
2022/06/04 02:20:06;;;;;;;16.15;9.98;;;;;;;13.22;62.35;101784.28;5093695;28;20031;-52
2022/06/04 02:22:33;;;;;;;18.30;10.02;;;;;;;13.24;62.11;101795.06;5093915;28;20028;-51
2022/06/04 02:25:04;;;;;;;14.57;9.02;;;;;;;13.20;62.63;101797.63;5089131;22;20087;-54
2022/06/04 02:27:30;;;;;;;16.48;9.60;;;;;;;13.17;62.80;101802.97;5033054;28;20108;-53
2022/06/04 02:29:56;;;;;;;17.33;9.65;;;;;;;13.13;63.35;101793.56;5033317;28;20117;-54
2022/06/04 02:32:38;;;;;;;17.75;9.93;;;;;;;13.09;63.34;101794.16;5032996;28;20062;-57
2022/06/04 02:35:36;;;;;;;17.40;10.38;;;;;;;13.10;62.79;101792.22;5033259;28;20182;-56
2022/06/04 02:38:14;;;;;;;17.92;10.27;;;;;;;13.04;63.50;101794.25;5032563;28;20022;-54
2022/06/04 02:40:55;;;;;;;15.82;10.15;;;;;;;13.02;63.58;101804.81;5033026;28;20029;-55
2022/06/04 02:43:39;;;;;;;18.40;9.95;;;;;;;13.00;63.97;101793.19;5031774;28;20171;-54
2022/06/04 02:46:19;;;;;;;17.40;10.20;;;;;;;12.97;64.28;101784.63;5033008;28;20108;-55
2022/06/04 02:48:52;;;;;;;15.75;9.63;;;;;;;13.04;63.95;101797.03;5032741;28;20778;-55
2022/06/04 02:51:23;;;;;;;16.52;10.02;;;;;;;12.99;64.55;101780.41;5032914;28;20032;-54
2022/06/04 02:53:49;;;;;;;16.52;10.23;;;;;;;12.97;64.74;101776.28;5032622;28;20098;-54
2022/06/04 02:56:22;;;;;;;18.05;10.57;;;;;;;12.92;65.14;101763.31;5033373;28;20416;-54
2022/06/04 02:58:53;;;;;;;20.35;11.30;;;;;;;12.76;65.20;101755.19;5032662;28;20036;-57
2022/06/04 03:01:21;;;;;;;18.92;10.45;;;;;;;12.77;65.56;101753.25;5032770;28;20033;-61
2022/06/04 03:03:46;;;;;;;19.23;10.63;;;;;;;12.72;66.07;101751.34;5032085;28;20468;-55
2022/06/04 03:06:25;;;;;;;19.13;10.85;;;;;;;12.67;65.76;101742.28;5030822;28;20023;-55
2022/06/04 03:08:52;;;;;;;20.13;10.75;;;;;;;12.68;66.44;101755.03;5032560;28;20017;-55
2022/06/04 03:11:17;;;;;;;19.17;10.80;;;;;;;12.62;66.92;101751.50;5029965;28;20456;-54
2022/06/04 03:13:45;;;;;;;18.02;10.75;;;;;;;12.60;67.25;101746.25;5031700;28;20052;-52
2022/06/04 03:16:11;;;;;;;18.73;11.32;;;;;;;12.59;67.07;101749.34;5031391;28;20108;-55
2022/06/04 03:18:36;;;;;;;19.50;11.18;;;;;;;12.61;67.47;101747.09;5031964;28;20476;-55
2022/06/04 03:21:02;;;;;;;18.65;11.57;;;;;;;12.55;67.76;101751.03;5031374;28;20492;-53
2022/06/04 03:23:27;;;;;;;19.52;11.45;;;;;;;12.57;68.02;101746.03;5031333;28;20036;-54
2022/06/04 03:25:52;;;;;;;19.38;11.68;;;;;;;12.53;68.18;101742.19;5046647;28;20066;-55
2022/06/04 03:28:18;;;;;;;20.10;11.57;;;;;;;12.55;67.75;101748.25;5050785;28;20444;-55
2022/06/04 03:30:44;;;;;;;20.25;12.07;;;;;;;12.52;67.99;101741.38;5044977;28;20077;-55
2022/06/04 03:33:09;;;;;;;20.75;11.75;;;;;;;12.50;68.54;101743.59;5031038;28;20361;-54
2022/06/04 03:35:35;;;;;;;20.77;11.60;;;;;;;12.43;69.04;101749.50;5031847;28;20021;-54
2022/06/04 03:38:00;;;;;;;20.10;11.90;;;;;;;12.41;68.88;101745.38;5031780;28;20357;-57
2022/06/04 03:40:26;;;;;;;20.55;12.18;;;;;;;12.33;69.30;101750.47;5031738;28;20033;-55
2022/06/04 03:42:51;;;;;;;19.50;11.90;;;;;;;12.33;69.52;101744.09;5031962;28;20029;-55
2022/06/04 03:45:16;;;;;;;20.40;12.05;;;;;;;12.35;69.53;101749.34;5031864;28;20087;-56
2022/06/04 03:47:42;;;;;;;20.67;12.43;;;;;;;12.37;69.73;101752.66;5031899;28;20083;-57
2022/06/04 03:50:13;;;;;;;19.65;12.40;;;;;;;12.37;69.60;101750.72;5031989;28;20061;-57
2022/06/04 03:52:39;;;;;;;19.48;12.05;;;;;;;12.37;69.69;101763.75;5031779;28;20033;-56
2022/06/04 03:55:05;;;;;;;20.63;11.80;;;;;;;12.46;69.60;101762.00;5031513;28;20128;-55
2022/06/04 03:57:50;;;;;;;19.75;11.75;;;;;;;12.56;69.59;101761.88;5031438;28;20044;-57
2022/06/04 04:00:21;;;;;;;19.30;11.93;;;;;;;12.56;69.63;101761.03;5031595;28;20037;-54
2022/06/04 04:02:52;;;;;;;20.13;12.15;;;;;;;12.48;69.60;101751.41;5031902;28;20372;-55
2022/06/04 04:05:21;;;;;;;21.15;12.82;;;;;;;12.48;69.87;101765.28;5031578;28;20065;-54
2022/06/04 04:07:49;;;;;;;20.52;12.38;;;;;;;12.37;70.28;101763.75;5031798;28;20033;-56
2022/06/04 04:10:15;;;;;;;19.75;12.80;;;;;;;12.38;70.74;101784.81;5031398;28;20029;-54
2022/06/04 04:12:40;;;;;;;20.35;13.02;;;;;;;12.31;71.02;101783.22;5031540;28;20029;-55
2022/06/04 04:15:07;;;;;;;19.33;12.80;;;;;;;12.33;71.03;101777.38;5030546;28;20022;-56
2022/06/04 04:17:35;;;;;;;19.98;12.80;;;;;;;12.31;71.47;101787.97;5029684;28;20112;-55
2022/06/04 04:20:00;;;;;;;20.38;12.82;;;;;;;12.30;71.49;101805.72;5030759;28;20029;-55
2022/06/04 04:22:26;;;;;;;20.20;12.30;;;;;;;12.26;71.82;101799.94;5030602;28;20028;-54
2022/06/04 04:24:51;;;;;;;20.80;12.43;;;;;;;12.27;71.80;101798.00;5030483;28;20049;-55
2022/06/04 04:27:17;;;;;;;19.98;12.38;;;;;;;12.31;71.62;101799.88;5031140;28;20064;-57
2022/06/04 04:29:42;;;;;;;19.75;13.10;;;;;;;12.32;72.28;101790.44;5030880;28;20033;-57
2022/06/04 04:32:08;;;;;;;20.98;12.88;;;;;;;12.28;72.09;101794.91;5031405;28;20112;-55
2022/06/04 04:34:33;;;;;;;21.30;12.90;;;;;;;12.23;72.24;101781.09;5029339;28;20061;-55
2022/06/04 04:36:59;;;;;;;21.80;12.98;;;;;;;12.20;72.38;101772.56;5031020;28;20107;-56
2022/06/04 04:39:24;;;;;;;19.80;12.73;;;;;;;12.26;72.93;101793.56;5030867;28;20073;-57
2022/06/04 04:41:50;;;;;;;20.50;12.55;;;;;;;12.27;73.01;101790.50;5031163;28;20029;-55
2022/06/04 04:44:15;;;;;;;20.77;12.77;;;;;;;12.22;73.29;101801.66;5030504;28;20087;-53
2022/06/04 04:46:40;;;;;;;20.60;13.48;;;;;;;12.17;73.48;101793.41;5030557;28;20060;-57
2022/06/04 04:49:06;;;;;;;21.25;12.55;;;;;;;12.24;73.36;101802.19;5030753;28;20014;-54
2022/06/04 04:51:34;;;;;;;21.27;13.20;;;;;;;12.27;73.52;101801.59;5030988;28;20363;-58
2022/06/04 04:54:00;;;;;;;20.50;12.82;;;;;;;12.31;73.42;101816.53;5031257;28;20061;-56
2022/06/04 04:56:25;;;;;;;22.33;12.50;;;;;;;12.39;72.89;101817.00;5030703;28;20053;-54
2022/06/04 04:58:50;;;;;;;22.20;12.90;;;;;;;12.42;73.36;101817.22;5030345;28;20044;-55
2022/06/04 05:01:22;;;;;;;20.73;12.40;;;;;;;12.49;73.01;101822.44;5031111;28;20468;-56
2022/06/04 05:03:47;;;;;;;20.75;13.30;;;;;;;12.52;72.87;101844.06;5030668;28;20451;-55
2022/06/04 05:06:14;;;;;;;21.20;12.90;;;;;;;12.47;73.32;101835.78;5030589;28;20021;-55
2022/06/04 05:08:40;;;;;;;21.35;13.07;;;;;;;12.50;73.09;101831.59;5030522;28;20030;-56
2022/06/04 05:11:12;;;;;;;20.42;12.50;;;;;;;12.55;73.05;101832.38;5029393;28;20487;-57
2022/06/04 05:13:38;;;;;;;19.95;12.65;;;;;;;12.56;72.96;101822.09;5029617;28;20025;-57
2022/06/04 05:16:04;;;;;;;20.83;13.13;;;;;;;12.57;73.38;101824.56;5030893;28;20472;-57
2022/06/04 05:18:29;;;;;;;20.77;12.63;;;;;;;12.61;73.36;101831.19;5030715;28;20036;-56
2022/06/04 05:20:55;;;;;;;21.42;13.85;;;;;;;12.55;73.75;101812.94;5030944;28;20025;-57
2022/06/04 05:23:20;;;;;;;23.05;13.45;;;;;;;12.57;73.34;101809.88;5030712;28;20026;-57
2022/06/04 05:25:46;;;;;;;20.50;12.35;;;;;;;12.55;73.33;101812.94;5030694;28;20079;-57
2022/06/04 05:28:14;;;;;;;21.95;13.63;;;;;;;12.50;73.95;101813.00;5030802;28;20048;-57
2022/06/04 05:30:40;;;;;;;22.98;13.45;;;;;;;12.46;73.99;101823.84;5030924;28;20029;-56
2022/06/04 05:33:07;;;;;;;22.45;12.90;;;;;;;12.50;74.04;101831.59;5030545;28;20032;-55
2022/06/04 05:35:33;;;;;;;22.05;12.77;;;;;;;12.57;73.70;101841.22;5029121;28;20392;-57
2022/06/04 05:37:58;;;;;;;23.52;13.27;;;;;;;12.57;74.00;101826.53;5030748;28;20021;-55
2022/06/04 05:40:23;;;;;;;22.33;13.57;;;;;;;12.66;73.78;101833.06;5030858;28;20041;-57
2022/06/04 05:42:49;;;;;;;22.40;13.27;;;;;;;12.72;74.12;101834.66;5030757;28;20136;-57
2022/06/04 05:45:14;;;;;;;21.40;13.88;;;;;;;12.77;73.64;101837.38;5031067;28;20030;-57
2022/06/04 05:47:39;;;;;;;21.95;13.00;;;;;;;12.81;73.64;101832.06;5029868;28;20381;-55
2022/06/04 05:50:05;;;;;;;22.73;13.40;;;;;;;12.84;73.33;101842.56;5030098;28;20107;-56
2022/06/04 05:52:30;;;;;;;23.08;13.15;;;;;;;12.90;73.05;101834.97;5033486;28;20049;-56
2022/06/04 05:54:56;;;;;;;23.02;13.63;;;;;;;12.98;72.66;101839.91;5034103;28;20029;-57
2022/06/04 05:57:21;;;;;;;21.27;13.13;;;;;;;12.95;72.91;101846.84;5034161;28;20105;-57
2022/06/04 05:59:49;;;;;;;22.35;13.82;;;;;;;12.90;72.67;101843.31;5034301;28;20029;-54
2022/06/04 06:02:14;;;;;;;22.55;13.23;;;;;;;12.91;72.74;101844.97;5033911;28;20034;-59
2022/06/04 06:04:39;;;;;;;22.55;14.10;;;;;;;12.87;73.26;101849.47;5034028;28;20088;-55
2022/06/04 06:07:05;;;;;;;20.77;13.95;;;;;;;12.96;73.01;101844.91;5033507;28;20026;-58
2022/06/04 06:09:30;;;;;;;22.42;13.70;;;;;;;12.95;72.90;101851.59;5032535;28;20442;-57
2022/06/04 06:11:56;;;;;;;21.92;14.45;;;;;;;12.93;72.72;101854.69;5033566;28;20090;-56
2022/06/04 06:14:22;;;;;;;22.77;14.70;;;;;;;13.05;73.43;101856.16;5033310;28;20017;-57
2022/06/04 06:16:50;;;;;;;22.35;13.23;;;;;;;13.16;72.54;101856.88;5032971;28;20025;-56
2022/06/04 06:19:17;;;;;;;22.27;14.20;;;;;;;13.17;72.12;101847.41;5033394;28;20036;-56
2022/06/04 06:21:43;;;;;;;22.77;14.38;;;;;;;13.29;71.92;101855.31;5033097;28;20383;-57
2022/06/04 06:24:10;;;;;;;22.05;14.48;;;;;;;13.27;71.49;101847.28;5033114;28;20021;-55
2022/06/04 06:26:52;;;;;;;22.83;14.13;;;;;;;13.36;71.46;101859.38;5032189;28;20041;-56
2022/06/04 06:29:17;;;;;;;22.77;14.52;;;;;;;13.43;70.91;101866.53;5032866;28;20472;-57
2022/06/04 06:31:43;;;;;;;23.95;15.52;;;;;;;13.35;71.20;101868.00;5033302;28;20032;-54
2022/06/04 06:34:09;;;;;;;23.02;14.60;;;;;;;13.33;71.54;101868.31;5033242;28;20029;-57
2022/06/04 06:36:35;;;;;;;21.58;14.88;;;;;;;13.31;71.82;101872.50;5033138;28;20025;-57
2022/06/04 06:39:00;;;;;;;22.65;13.85;;;;;;;13.33;71.58;101868.31;5033479;28;20033;-58
2022/06/04 06:41:26;;;;;;;23.05;14.38;;;;;;;13.31;71.85;101862.22;5039724;28;20033;-56
2022/06/04 06:43:52;;;;;;;23.63;14.32;;;;;;;13.29;71.95;101874.75;5044728;28;20097;-56
2022/06/04 06:46:29;;;;;;;22.05;14.63;;;;;;;13.27;72.09;101862.00;5043250;28;20025;-50
2022/06/04 06:49:05;;;;;;;22.38;14.77;;;;;;;13.36;71.35;101869.66;5033089;28;20060;-57
2022/06/04 06:51:35;;;;;;;23.40;14.48;;;;;;;13.44;70.95;101880.13;5033356;28;20026;-56
2022/06/04 06:54:00;;;;;;;21.33;13.95;;;;;;;13.44;71.48;101873.75;5033373;28;20041;-56
2022/06/04 06:56:31;;;;;;;23.30;14.88;;;;;;;13.47;71.62;101878.69;5033331;28;20029;-57
2022/06/04 06:58:58;;;;;;;23.85;14.65;;;;;;;13.58;71.47;101885.75;5033173;28;20029;-57
2022/06/04 07:01:27;;;;;;;22.15;14.23;;;;;;;13.69;70.94;101892.00;5033186;28;20033;-56
2022/06/04 07:03:55;;;;;;;22.88;14.05;;;;;;;13.74;70.32;101883.56;5048693;28;20124;-57
2022/06/04 07:06:35;;;;;;;23.67;14.82;;;;;;;13.92;70.05;101881.06;5033177;28;20037;-58
2022/06/04 07:09:04;;;;;;;21.63;14.57;;;;;;;14.08;69.84;101878.84;5032897;28;20042;-57
2022/06/04 07:11:30;;;;;;;22.88;15.18;;;;;;;14.14;69.34;101878.44;5042670;28;20079;-58
2022/06/04 07:13:55;;;;;;;22.50;14.80;;;;;;;14.06;69.09;101873.59;5043242;28;20460;-57
2022/06/04 07:16:21;;;;;;;22.77;14.90;;;;;;;14.01;69.47;101871.72;5041583;28;20036;-57
2022/06/04 07:18:47;;;;;;;24.60;14.82;;;;;;;14.06;68.99;101873.59;5041371;28;20040;-56
2022/06/04 07:21:13;;;;;;;23.02;14.98;;;;;;;14.17;69.13;101871.44;5041995;28;20376;-57
2022/06/04 07:23:39;;;;;;;22.42;14.68;;;;;;;14.31;68.31;101872.28;5043537;28;20040;-55
2022/06/04 07:26:05;;;;;;;24.30;15.00;;;;;;;14.41;68.00;101867.66;5040668;28;20130;-57
2022/06/04 07:28:32;;;;;;;23.27;14.93;;;;;;;14.51;67.53;101876.66;5034785;28;20120;-58
2022/06/04 07:30:57;;;;;;;23.08;14.38;;;;;;;14.66;67.45;101880.25;5032899;28;20453;-57
2022/06/04 07:33:22;;;;;;;22.15;14.60;;;;;;;14.71;66.44;101879.38;5035205;28;20036;-57
2022/06/04 07:35:49;;;;;;;24.05;14.70;;;;;;;14.68;66.63;101875.25;5046078;28;20089;-57
2022/06/04 07:38:15;;;;;;;22.92;14.43;;;;;;;14.79;66.26;101882.28;5041868;28;20048;-57
2022/06/04 07:40:40;;;;;;;23.08;15.10;;;;;;;14.94;66.65;101892.28;5044631;28;20045;-51
2022/06/04 07:43:06;;;;;;;21.88;14.43;;;;;;;15.03;65.70;101892.34;5039723;28;20036;-58
2022/06/04 07:45:34;;;;;;;25.05;14.25;;;;;;;15.20;66.00;101893.69;5041453;28;20127;-58
2022/06/04 07:47:59;;;;;;;21.77;14.35;;;;;;;15.29;65.03;101894.63;5040819;28;20032;-59
2022/06/04 07:50:24;;;;;;;21.73;14.32;;;;;;;15.38;64.66;101883.53;5041627;28;20093;-55
2022/06/04 07:52:50;;;;;;;21.92;14.30;;;;;;;15.53;64.44;101891.56;5041243;28;20040;-57
2022/06/04 07:55:15;;;;;;;22.23;14.15;;;;;;;15.63;63.92;101887.69;5038454;28;20048;-57
2022/06/04 07:57:41;;;;;;;23.38;14.80;;;;;;;15.62;64.15;101882.44;5042406;28;20544;-57
2022/06/04 08:00:08;;;;;;;22.25;14.27;;;;;;;15.74;63.69;101894.69;5040932;28;20029;-55
2022/06/04 08:02:33;;;;;;;22.33;14.70;;;;;;;15.82;63.51;101892.25;5043691;28;20247;-57
2022/06/04 08:04:59;;;;;;;23.58;14.65;;;;;;;15.89;63.61;101887.09;5042597;28;20465;-56
2022/06/04 08:07:24;;;;;;;22.17;15.20;;;;;;;16.05;62.60;101887.53;5041321;28;20032;-56
2022/06/04 08:09:50;;;;;;;21.85;14.50;;;;;;;16.13;62.51;101892.34;5041033;28;20031;-57
2022/06/04 08:12:17;;;;;;;20.60;14.00;;;;;;;16.10;62.47;101894.94;5039588;28;20021;-56
2022/06/04 08:14:44;;;;;;;21.88;14.30;;;;;;;16.00;62.14;101891.28;5039934;28;20131;-56
2022/06/04 08:17:10;;;;;;;21.67;14.77;;;;;;;15.89;62.79;101890.72;5044613;28;20025;-57
2022/06/04 08:19:37;;;;;;;21.40;14.35;;;;;;;15.97;63.59;101897.50;5040407;28;20024;-56
2022/06/04 08:22:03;;;;;;;21.60;14.38;;;;;;;16.20;62.77;101891.91;5042266;28;20116;-56
2022/06/04 08:24:30;;;;;;;22.15;14.50;;;;;;;16.29;62.01;101886.38;5040310;28;20044;-56
2022/06/04 08:26:58;;;;;;;24.95;16.48;;;;;;;16.36;61.85;101886.75;5041949;28;20036;-56
2022/06/04 08:29:25;;;;;;;22.40;14.90;;;;;;;16.42;61.38;101871.47;5042351;28;20118;-56
2022/06/04 08:31:50;;;;;;;21.75;14.70;;;;;;;16.63;60.94;101879.31;5039848;28;20029;-56
2022/06/04 08:34:16;;;;;;;23.67;15.00;;;;;;;16.56;60.64;101885.34;5044051;28;20018;-55
2022/06/04 08:36:41;;;;;;;23.23;15.48;;;;;;;16.66;60.28;101876.69;5043002;28;20357;-58
2022/06/04 08:39:07;;;;;;;23.25;14.50;;;;;;;16.66;60.12;101871.09;5044782;28;20021;-55
2022/06/04 08:41:42;;;;;;;21.55;14.48;;;;;;;16.74;60.22;101875.06;5041199;28;20057;-57
2022/06/04 08:44:27;;;;;;;23.10;14.85;;;;;;;16.82;60.21;101867.84;5042239;28;20078;-58
2022/06/04 08:47:00;;;;;;;21.88;14.57;;;;;;;16.91;60.09;101867.88;5041858;28;20025;-57
2022/06/04 08:49:52;;;;;;;22.15;14.98;;;;;;;17.10;59.57;101871.25;5039600;28;20494;-59
2022/06/04 08:52:36;;;;;;;21.52;13.98;;;;;;;17.09;58.94;101869.59;5030195;28;20038;-57
2022/06/04 08:58:06;;;;;;;22.45;14.02;;;;;;;17.33;59.17;101875.88;5036954;28;20063;-55
2022/06/04 09:00:38;;;;;;;21.67;14.25;;;;;;;17.46;58.59;101875.72;5051747;28;20087;-58
2022/06/04 09:03:18;;;;;;;21.65;14.35;;;;;;;17.37;57.97;101891.69;5034986;28;20025;-59
2022/06/04 09:06:02;;;;;;;22.90;14.18;;;;;;;17.50;59.03;101887.09;5030947;28;20040;-58
2022/06/04 09:08:40;;;;;;;23.63;15.77;;;;;;;17.64;57.78;101891.72;5041948;28;20146;-58
2022/06/04 09:11:11;;;;;;;22.73;14.25;;;;;;;17.56;57.82;101891.38;5034135;28;20629;-58
2022/06/04 09:13:45;;;;;;;22.02;14.00;;;;;;;17.61;57.16;101905.19;5038474;28;20095;-58
2022/06/04 09:16:36;;;;;;;22.17;14.35;;;;;;;17.71;57.70;101908.81;5038477;28;20018;-58
2022/06/04 09:19:09;;;;;;;21.55;14.00;;;;;;;17.73;57.08;101912.94;5036766;28;20021;-58
2022/06/04 09:21:38;;;;;;;22.48;14.15;;;;;;;18.06;57.12;101906.84;5037955;28;20321;-57
2022/06/04 09:24:04;;;;;;;23.13;14.60;;;;;;;18.19;56.23;101905.03;5037114;28;20400;-57
2022/06/04 09:26:40;;;;;;;21.63;14.90;;;;;;;18.23;55.93;101899.56;5039284;28;20131;-58
2022/06/04 09:29:28;;;;;;;22.50;14.18;;;;;;;18.16;56.84;101893.66;5041655;28;20029;-60
2022/06/04 09:32:21;;;;;;;23.65;14.68;;;;;;;18.15;56.15;101894.81;5041961;28;20041;-58
2022/06/04 09:34:50;;;;;;;23.88;14.77;;;;;;;18.03;56.07;101885.13;5043075;28;20044;-57
2022/06/04 09:37:15;;;;;;;21.08;13.80;;;;;;;18.18;57.17;101878.16;5042549;28;20026;-58
2022/06/04 09:39:45;;;;;;;21.83;14.20;;;;;;;18.05;56.77;101890.38;5042414;28;20460;-60
2022/06/04 09:42:13;;;;;;;22.58;15.20;;;;;;;18.12;56.24;101885.09;5048663;28;20068;-60
2022/06/04 09:44:59;;;;;;;23.15;15.15;;;;;;;18.19;56.22;101887.38;5051601;28;20078;-58
2022/06/04 09:47:34;;;;;;;22.55;14.95;;;;;;;18.19;55.83;101891.00;5051981;28;20422;-58
2022/06/04 09:50:04;;;;;;;22.33;15.30;;;;;;;18.25;56.10;101891.66;5054319;28;20029;-58
2022/06/04 09:52:42;;;;;;;24.23;15.68;;;;;;;18.34;55.62;101889.66;5053855;28;20067;-57
2022/06/04 09:55:20;;;;;;;22.88;15.60;;;;;;;18.51;56.08;101885.97;5054047;28;20028;-57
2022/06/04 09:58:28;;;;;;;24.88;15.40;;;;;;;18.76;55.07;101877.78;5054131;28;20434;-58
2022/06/04 10:01:14;;;;;;;21.65;14.68;;;;;;;19.11;55.10;101888.84;5052736;28;20669;-59
2022/06/04 10:03:40;;;;;;;23.95;15.48;;;;;;;19.25;54.56;101891.38;5054368;28;20107;-58
2022/06/04 10:06:08;;;;;;;22.83;15.30;;;;;;;19.30;53.59;101904.38;5046774;28;20029;-59
2022/06/04 10:11:23;;;;;;;23.45;14.65;;;;;;;19.63;53.70;101901.66;5034757;28;20044;-58
2022/06/04 10:13:52;;;;;;;22.58;15.52;;;;;;;19.68;52.67;101911.84;5050134;28;20033;-58
2022/06/04 10:16:24;;;;;;;22.25;15.32;;;;;;;19.76;52.67;101915.78;5051868;28;20029;-58
2022/06/04 10:19:01;;;;;;;22.15;14.57;;;;;;;19.79;52.57;101906.63;5053061;28;20064;-61
2022/06/04 10:21:35;;;;;;;23.30;14.85;;;;;;;19.75;51.87;101914.13;5053211;28;20120;-60
2022/06/04 10:24:01;;;;;;;;;;;;;;;20.01;52.29;101916.72;5052761;28;20029;-59
2022/06/04 10:26:50;;;;;;;21.88;14.85;;;;;;;20.18;52.38;101904.47;5047922;28;20295;-61
2022/06/04 10:29:27;;;;;;;21.65;14.48;;;;;;;20.39;51.12;101920.47;5037256;28;20040;-59
2022/06/04 10:32:18;;;;;;;22.92;15.23;;;;;;;20.47;51.36;101904.69;5031910;28;20052;-58
2022/06/04 10:35:24;;;;;;;24.67;15.63;;;;;;;20.63;49.77;101916.06;5033387;28;20080;-58
2022/06/04 10:38:32;;;;;;;23.10;14.98;;;;;;;20.77;50.46;101905.31;5011915;28;20488;-60
2022/06/04 10:41:36;;;;;;;23.23;15.80;;;;;;;20.77;48.63;101905.31;5032690;28;20043;-59
2022/06/04 10:44:44;;;;;;;23.08;14.45;;;;;;;20.72;50.85;101897.09;5037653;28;20045;-60
2022/06/04 10:47:35;;;;;;;21.50;15.10;;;;;;;20.68;50.09;101894.16;5038909;28;20052;-58
2022/06/04 10:51:25;;;;;;;23.17;15.23;;;;;;;20.79;49.72;101899.34;5039570;28;20120;-57
2022/06/04 10:53:41;;;;;;;23.73;14.75;;;;;;;21.25;50.11;101891.59;5041376;28;20439;-58
2022/06/04 10:56:16;;;;;;;20.65;13.63;;;;;;;21.90;49.07;101895.50;5041595;28;20032;-57
2022/06/04 10:59:02;;;;;;;21.63;14.40;;;;;;;22.20;47.83;101893.13;5043648;28;20032;-61
2022/06/04 11:01:53;;;;;;;21.10;14.68;;;;;;;22.20;47.61;101895.13;5052176;28;20416;-61
2022/06/04 11:05:06;;;;;;;23.45;14.35;;;;;;;22.16;46.39;101911.94;5051999;28;20029;-59
2022/06/04 11:07:52;;;;;;;25.60;14.40;;;;;;;22.20;47.15;101901.56;5053215;28;20029;-60
2022/06/04 11:10:24;;;;;;;23.48;14.98;;;;;;;22.27;46.50;101901.78;5051921;28;20029;-59
2022/06/04 11:13:06;;;;;;;22.92;14.65;;;;;;;22.38;46.52;101907.69;5051682;28;20039;-60
2022/06/04 11:15:42;;;;;;;28.50;14.60;;;;;;;22.25;46.95;101909.78;5052427;28;20391;-59
2022/06/04 11:18:17;;;;;;;23.70;15.23;;;;;;;22.17;46.69;101909.94;5053663;28;20589;-60
2022/06/04 11:20:46;;;;;;;21.60;15.68;;;;;;;22.07;46.79;101905.66;5049759;28;20041;-59
2022/06/04 11:23:15;;;;;;;22.20;15.35;;;;;;;21.94;47.06;101916.16;5050575;28;20399;-57
2022/06/04 11:25:46;;;;;;;22.92;15.40;;;;;;;21.91;47.33;101914.06;5050298;28;20052;-62
2022/06/04 11:28:16;;;;;;;23.73;14.82;;;;;;;21.59;47.38;101905.47;5050760;28;20169;-58
2022/06/04 11:31:02;;;;;;;23.40;15.32;;;;;;;21.78;47.63;101914.09;5050033;28;20056;-60
2022/06/04 11:33:38;;;;;;;22.67;14.70;;;;;;;21.75;47.08;101908.34;5050575;28;20017;-56
2022/06/04 11:36:14;;;;;;;23.45;14.88;;;;;;;21.97;47.78;101913.44;5050699;28;20033;-58
2022/06/04 11:39:01;;;;;;;21.88;14.95;;;;;;;21.93;46.76;101912.50;5049984;28;20471;-58
2022/06/04 11:41:56;;;;;;;22.35;14.90;;;;;;;22.16;46.89;101905.47;5050159;28;20060;-57
2022/06/04 11:44:43;;;;;;;22.77;14.98;;;;;;;22.00;46.72;101911.91;5046111;28;20056;-58